Airfield :
LOGIN :

Register | Disclaimer

   EN    FR    IT 

 










Legend :    VFR   Marginal VFR   IFR   Intensive IFR   Very Intensive IFR
Visi :
Ceiling :
>= 8 km
>= 3000ft
5 to 8 km
1000 to 3000 ft
1500m to 5 km
500 to 1000 ft
800 to 1500m
200 to 500 ft
< 800m
< 200 ft
Symbols :   Thunderstorms  Fog  Heavy snow  Heavy precipitations  Wind > 20 kt
SIGMETs :     Misc.  Thunderstorms  Icing  Turbulence  Mountain Waves  Volcanic Ashes






- Airport Elevation : 1768 ft


LEHC - Huesca Pirineos

CURRENT METAR :
  • 060600Z AUTO 09006KT 9999 FEW038 BKN046 OVC057 08/04 Q1021

EXPIRED METARs :
  • 060530Z AUTO 10004KT 070V140 9999 -RA FEW041 BKN055 OVC067 08/05 Q1020
  • 060500Z AUTO 08007KT 9999 SCT050 OVC069 09/04 Q1020
  • 060430Z AUTO 09006KT 9999 -RA BKN055 BKN065 08/05 Q1020
  • 060400Z AUTO 10008KT 9999 -RA BKN058 OVC070 09/04 Q1020
  • 060330Z AUTO 09009KT 9999 BKN066 09/03 Q1020

TAF TAF LEHC
Valid from the 06 at 03:00 until the 07 at 03:00 UTC


060200Z 0603/0703 09007KT 9999 FEW020 TX17/0612Z TN08/0606Z
PROB40
TEMPO 0606/0612 3000 RA SHRA FEW020TCU BKN030



MET'MAP, your aeronautical weather chart ! - Copyright ORBIFLY December 2007 - Disclaimer

ORBIFLY MET'MAP TEAM :

Programming & Development : Alexandra Zaïnal
Concept & original design : Baudouin d'Aumeries
Assistance for programming : Marc-Olivier Méhu
Technical & hardware support : Manuel Goepfert

Contact : metmap@orbifly.com




SOURCES & CREDITS :

   NOAA